DucheSS Of Scandinavia — OUZI2 — position and weather

sailwx.info

Track history (hours):
 
Tides and Currents Weather Stations Pressure Air Temp Water Temp Dewpoint Dewpoint Depression Visibility Wind Speed Wind Dir Waves Ship Positions

DucheSS Of Scandinavia

Operator: DFDS A/S

Last reported at 2015-Jul-03 19:34 UTC. Time now 2015-Jul-03 20:13 UTC.
Position N 58°58' E 011°02'.

Length 134 m; draft 5.2 m.

Type: Passenger vessel. MMSI: 219002929.

Date/timePositionNaut miles runAvg speedWind from/ knotsBaromVisibWave heightAir tempDewpointWater temp
2015-Jul-03 19:34N 58°58' E 011°02'1615.8
2015-Jul-03 18:33N 59°00' E 010°31'1211.5
2015-Jul-03 17:33N 59°07' E 010°14'2 1.7
2015-Jul-03 16:34N 59°06' E 010°14'1514.6
2015-Jul-03 15:34N 59°01' E 010°41'1615.5
2015-Jul-03 14:33N 58°56' E 011°10'0 0.2
2015-Jul-03 13:33N 58°56' E 011°10'1312.6
2015-Jul-03 12:33N 59°02' E 010°48'1616.3
2015-Jul-03 11:33N 59°01' E 010°17'6 6.3
2015-Jul-03 10:33N 59°08' E 010°14'6 6.3
2015-Jul-03 09:33N 59°02' E 010°17'1716.9
2015-Jul-03 08:33N 59°01' E 010°50'1211.7
2015-Jul-03 07:33N 58°56' E 011°10'8 8.5
2015-Jul-03 06:33N 59°00' E 010°56'1616.3
2015-Jul-03 05:34N 59°01' E 010°24'9 8.8
2015-Jul-03 04:33N 59°08' E 010°14'0 0.0
2015-Jul-03 03:31N 59°08' E 010°14'0 0.0
2015-Jul-03 02:32N 59°08' E 010°14'0 0.0
2015-Jul-03 01:26N 59°08' E 010°14'0 0.0
2015-Jul-03 00:33N 59°08' E 010°14'0 0.0
2015-Jul-02 23:33N 59°08' E 010°14'2 1.8
2015-Jul-02 22:33N 59°06' E 010°14'1413.8
2015-Jul-02 21:33N 59°01' E 010°40'1615.6
2015-Jul-02 20:33N 58°56' E 011°08'4 3.9
2015-Jul-02 19:34N 58°58' E 011°02'1615.6
2015-Jul-02 18:34N 59°01' E 010°32'1211.6
2015-Jul-02 17:33N 59°07' E 010°14'2 2.0
2015-Jul-02 16:33N 59°05' E 010°14'1313.3
2015-Jul-02 15:34N 59°01' E 010°39'1515.1
2015-Jul-02 14:33N 58°56' E 011°07'2 1.9
2015-Jul-02 13:34N 58°56' E 011°10'1312.8
2015-Jul-02 12:33N 59°02' E 010°48'1616.4
2015-Jul-02 11:33N 59°02' E 010°16'6 6.0
2015-Jul-02 10:34N 59°08' E 010°14'6 6.4
2015-Jul-02 09:33N 59°02' E 010°18'1716.7
2015-Jul-02 08:33N 59°01' E 010°50'1211.3
2015-Jul-02 07:31N 58°56' E 011°10'8 8.8
2015-Jul-02 06:33N 59°00' E 010°56'1616.3
2015-Jul-02 05:33N 59°01' E 010°24'9 8.8
2015-Jul-02 04:33N 59°08' E 010°14'0 0.0
2015-Jul-02 03:33N 59°08' E 010°14'0 0.0
2015-Jul-02 02:33N 59°08' E 010°14'0 0.0
2015-Jul-02 01:33N 59°08' E 010°14'0 0.0
2015-Jul-02 00:33N 59°08' E 010°14'0 0.0
2015-Jul-01 23:33N 59°08' E 010°14'2 2.3
2015-Jul-01 22:33N 59°05' E 010°14'1313.1
2015-Jul-01 21:34N 59°01' E 010°38'1615.4
2015-Jul-01 20:33N 58°56' E 011°07'4 3.6
2015-Jul-01 19:33N 58°58' E 011°02'1615.6
2015-Jul-01 18:34N 59°01' E 010°32'1111.4
2015-Jul-01 17:33N 59°07' E 010°14'2 2.3
2015-Jul-01 16:33N 59°05' E 010°15'1413.6
2015-Jul-01 15:33N 59°02' E 010°40'1515.3
2015-Jul-01 14:33N 58°56' E 011°08'1 1.3
2015-Jul-01 13:33N 58°56' E 011°10'1313.0
2015-Jul-01 12:34N 59°02' E 010°48'1615.5
2015-Jul-01 11:33N 59°01' E 010°17'6 6.5
2015-Jul-01 10:33N 59°08' E 010°14'6 5.8
2015-Jul-01 09:33N 59°02' E 010°16'1616.0
2015-Jul-01 08:34N 59°02' E 010°47'1313.4
2015-Jul-01 07:33N 58°56' E 011°10'8 8.2
2015-Jul-01 06:34N 59°00' E 010°57'1616.1
2015-Jul-01 05:34N 59°01' E 010°25'9 9.1
2015-Jul-01 04:33N 59°08' E 010°14'0 0.0
2015-Jul-01 03:33N 59°08' E 010°14'0 0.0
2015-Jul-01 02:33N 59°08' E 010°14'0 0.0
2015-Jul-01 01:33N 59°08' E 010°14'0 0.0
2015-Jul-01 00:32N 59°08' E 010°14'0 0.0
2015-Jun-30 23:33N 59°08' E 010°14'3 2.8
2015-Jun-30 22:33N 59°05' E 010°15'1414.4
2015-Jun-30 21:34N 59°01' E 010°42'1515.2
2015-Jun-30 20:33N 58°56' E 011°10'5 4.7
2015-Jun-30 19:34N 58°58' E 011°02'1615.9
2015-Jun-30 18:34N 59°00' E 010°32'1211.5
2015-Jun-30 17:33N 59°07' E 010°14'2 1.8
2015-Jun-30 16:33N 59°06' E 010°14'1413.9
2015-Jun-30 15:34N 59°01' E 010°40'1615.1
2015-Jun-30 14:31N 58°56' E 011°08'1 0.9
2015-Jun-30 13:33N 58°56' E 011°10'1312.9
2015-Jun-30 12:33N 59°02' E 010°48'1615.8
2015-Jun-30 11:33N 59°02' E 010°17'6 6.3
2015-Jun-30 10:33N 59°08' E 010°14'6 6.3
2015-Jun-30 09:33N 59°02' E 010°17'1616.1
2015-Jun-30 08:34N 59°02' E 010°48'1312.4
2015-Jun-30 07:32N 58°56' E 011°10'1010.4
2015-Jun-30 06:34N 59°01' E 010°53'1716.5
2015-Jun-30 05:33N 59°01' E 010°21'8 7.6
2015-Jun-30 04:33N 59°08' E 010°14'0 0.0
2015-Jun-30 03:33N 59°08' E 010°14'0 0.0
2015-Jun-30 02:34N 59°08' E 010°14'0 0.0
2015-Jun-30 01:31N 59°08' E 010°14'0 0.0
2015-Jun-30 00:32N 59°08' E 010°14'0 0.0
2015-Jun-29 23:33N 59°08' E 010°14'3 3.3
2015-Jun-29 22:33N 59°04' E 010°15'1313.2
2015-Jun-29 21:33N 59°01' E 010°40'1514.7
2015-Jun-29 20:34N 58°56' E 011°06'4 3.6
2015-Jun-29 19:33N 58°59' E 011°01'1515.5
2015-Jun-29 18:34N 59°00' E 010°32'1211.4
2015-Jun-29 17:33N 59°07' E 010°14'3 3.3
2015-Jun-29 16:34N 59°04' E 010°15'1413.8
2015-Jun-29 15:33N 59°01' E 010°41'1515.2
2015-Jun-29 14:33N 58°56' E 011°09'1 0.8
2015-Jun-29 13:33N 58°56' E 011°10'1312.7
2015-Jun-29 12:33N 59°02' E 010°48'1716.6
2015-Jun-29 11:33N 59°02' E 010°16'6 5.9
2015-Jun-29 10:33N 59°08' E 010°14'6 6.2
2015-Jun-29 09:34N 59°02' E 010°17'1616.4
2015-Jun-29 08:33N 59°02' E 010°49'1212.4
2015-Jun-29 07:33N 58°56' E 011°10'8 8.0
2015-Jun-29 06:33N 59°00' E 010°57'1616.2
2015-Jun-29 05:33N 59°01' E 010°26'9 9.2
2015-Jun-29 04:33N 59°08' E 010°14'0 0.0
2015-Jun-29 03:33N 59°08' E 010°14'0 0.0
2015-Jun-29 02:33N 59°08' E 010°14'0 0.0
2015-Jun-29 01:33N 59°08' E 010°14'0 0.0
2015-Jun-29 00:34N 59°08' E 010°14'0 0.0
2015-Jun-28 23:34N 59°08' E 010°14'5 5.2
2015-Jun-28 22:33N 59°02' E 010°15'1514.5
2015-Jun-28 21:34N 59°02' E 010°43'1514.5
2015-Jun-28 20:33N 58°56' E 011°09'6 5.9
2015-Jun-28 19:34N 58°59' E 010°60'1616.0
2015-Jun-28 18:33N 59°01' E 010°29'1010.5
2015-Jun-28 17:33N 59°08' E 010°14'3 3.5
2015-Jun-28 16:33N 59°04' E 010°15'1413.7
2015-Jun-28 15:33N 59°01' E 010°41'1515.0
2015-Jun-28 14:32N 58°56' E 011°09'1 0.9
2015-Jun-28 13:33N 58°56' E 011°10'1212.5
2015-Jun-28 12:33N 59°01' E 010°49'1716.7
2015-Jun-28 11:34N 59°02' E 010°16'6 6.0
2015-Jun-28 10:34N 59°08' E 010°14'8 6.6
2015-Jun-28 09:25N 59°01' E 010°22'1315.4
2015-Jun-28 08:33N 59°02' E 010°47'5 2.3
2015-Jun-28 06:33N 59°00' E 010°56'1616.4
2015-Jun-28 05:33N 59°01' E 010°24'8 8.5
2015-Jun-28 04:34N 59°08' E 010°14'1 1.4
2015-Jun-28 03:34N 59°06' E 010°14'0 0.0
2015-Jun-28 02:33N 59°06' E 010°14'0 0.0
2015-Jun-28 01:34N 59°06' E 010°14'0 0.0
2015-Jun-28 00:33N 59°06' E 010°14'1 1.1
2015-Jun-27 23:33N 59°07' E 010°14'3 3.3
2015-Jun-27 22:34N 59°04' E 010°15'1413.6
2015-Jun-27 21:34N 59°01' E 010°41'1514.9
2015-Jun-27 20:33N 58°56' E 011°08'4 4.4
2015-Jun-27 19:33N 58°59' E 011°01'1615.8
2015-Jun-27 18:33N 59°00' E 010°31'1111.2
2015-Jun-27 17:33N 59°07' E 010°14'3 3.3
2015-Jun-27 16:33N 59°04' E 010°15'1313.1
2015-Jun-27 15:33N 59°01' E 010°40'1515.2
2015-Jun-27 14:34N 58°56' E 011°07'1 1.5
2015-Jun-27 13:34N 58°56' E 011°10'1212.4
2015-Jun-27 12:33N 59°02' E 010°49'1616.2
2015-Jun-27 11:33N 59°01' E 010°17'6 6.3
2015-Jun-27 10:34N 59°08' E 010°14'6 5.8
2015-Jun-27 09:33N 59°02' E 010°16'1616.4
2015-Jun-27 08:34N 59°02' E 010°47'1313.1
2015-Jun-27 07:34N 58°56' E 011°10'8 7.9
2015-Jun-27 06:33N 59°00' E 010°57'1716.7
2015-Jun-27 05:33N 59°01' E 010°25'9 8.9
2015-Jun-27 04:33N 59°08' E 010°14'1 1.4
2015-Jun-27 03:33N 59°06' E 010°14'0 0.0
2015-Jun-27 02:33N 59°06' E 010°14'0 0.0
2015-Jun-27 01:33N 59°06' E 010°14'0 0.0
2015-Jun-27 00:33N 59°06' E 010°14'0 0.1
2015-Jun-26 23:33N 59°06' E 010°14'2 1.9
2015-Jun-26 22:33N 59°04' E 010°15'1413.9
2015-Jun-26 21:33N 59°01' E 010°41'1515.2
2015-Jun-26 20:33N 58°56' E 011°08'5 5.4
2015-Jun-26 19:33N 58°59' E 011°00'1616.0
2015-Jun-26 18:33N 59°00' E 010°29'1110.6
2015-Jun-26 17:33N 59°08' E 010°14'3 3.4
2015-Jun-26 16:34N 59°04' E 010°15'1413.7
2015-Jun-26 15:33N 59°01' E 010°41'1514.7
2015-Jun-26 14:34N 58°56' E 011°08'1 1.4
2015-Jun-26 13:33N 58°56' E 011°10'1211.7
2015-Jun-26 12:34N 59°01' E 010°50'1616.0
2015-Jun-26 11:33N 59°01' E 010°19'7 6.9
2015-Jun-26 10:33N 59°08' E 010°14'6 6.2
2015-Jun-26 09:33N 59°02' E 010°17'1616.5
2015-Jun-26 08:34N 59°02' E 010°49'1212.3
2015-Jun-26 07:34N 58°56' E 011°10'1010.2
2015-Jun-26 06:34N 59°01' E 010°53'1615.9
2015-Jun-26 05:33N 59°01' E 010°22'8 7.9
2015-Jun-26 04:33N 59°08' E 010°14'1 1.4
2015-Jun-26 03:33N 59°06' E 010°14'0 0.0
2015-Jun-26 02:33N 59°06' E 010°14'0 0.0
2015-Jun-26 01:33N 59°06' E 010°14'0 0.0
2015-Jun-26 00:31N 59°06' E 010°14'0 0.2
2015-Jun-25 23:33N 59°06' E 010°14'1 1.1
2015-Jun-25 22:33N 59°05' E 010°14'1414.0
2015-Jun-25 21:33N 59°01' E 010°40'1515.4
2015-Jun-25 20:33N 58°56' E 011°08'6 6.0
2015-Jun-25 19:33N 58°59' E 010°59'1616.1
2015-Jun-25 18:33N 59°00' E 010°28'1010.2
2015-Jun-25 17:33N 59°08' E 010°14'4 3.6
2015-Jun-25 16:33N 59°04' E 010°15'1313.5
2015-Jun-25 15:33N 59°02' E 010°41'1514.9
2015-Jun-25 14:34N 58°56' E 011°07'1 1.4
2015-Jun-25 13:33N 58°56' E 011°10'1212.4
2015-Jun-25 12:33N 59°01' E 010°49'1616.1
2015-Jun-25 11:33N 59°01' E 010°17'6 6.4
2015-Jun-25 10:33N 59°08' E 010°14'6 6.0
2015-Jun-25 09:33N 59°02' E 010°16'1615.9
2015-Jun-25 08:33N 59°02' E 010°47'1313.3
2015-Jun-25 07:33N 58°56' E 011°10'9 9.0
2015-Jun-25 06:33N 59°00' E 010°55'1615.7
2015-Jun-25 05:33N 59°01' E 010°25'9 8.9
2015-Jun-25 04:33N 59°08' E 010°14'1 1.4
2015-Jun-25 03:33N 59°06' E 010°14'0 0.0
2015-Jun-25 02:28N 59°06' E 010°14'0 0.0
2015-Jun-25 01:32N 59°06' E 010°14'0 0.0
2015-Jun-25 00:33N 59°06' E 010°14'1 0.7
2015-Jun-24 23:33N 59°07' E 010°14'3 2.5
2015-Jun-24 22:33N 59°04' E 010°15'1414.0
2015-Jun-24 21:34N 59°02' E 010°41'1515.3
2015-Jun-24 20:33N 58°56' E 011°09'5 5.3
2015-Jun-24 19:33N 58°59' E 011°01'1615.9
2015-Jun-24 18:33N 59°00' E 010°30'1110.9
2015-Jun-24 17:33N 59°07' E 010°14'3 3.3
2015-Jun-24 16:34N 59°04' E 010°15'1413.7
2015-Jun-24 15:34N 59°02' E 010°41'1515.0
2015-Jun-24 14:33N 58°56' E 011°08'1 1.2
2015-Jun-24 13:33N 58°56' E 011°10'1312.8
2015-Jun-24 12:33N 59°02' E 010°48'1616.4
2015-Jun-24 11:33N 59°02' E 010°16'6 6.0
2015-Jun-24 10:33N 59°08' E 010°14'7 6.9
2015-Jun-24 09:33N 59°01' E 010°20'1515.5
2015-Jun-24 08:33N 59°02' E 010°49'1212.0
2015-Jun-24 07:33N 58°56' E 011°10'8 8.2
2015-Jun-24 06:33N 59°00' E 010°57'1616.3
2015-Jun-24 05:33N 59°01' E 010°25'9 9.1
2015-Jun-24 04:33N 59°08' E 010°14'1 1.4
2015-Jun-24 03:33N 59°06' E 010°14'0 0.0
2015-Jun-24 02:34N 59°06' E 010°14'0 0.0
2015-Jun-24 01:33N 59°06' E 010°14'0 0.0
2015-Jun-24 00:33N 59°06' E 010°14'0 0.3
2015-Jun-23 23:33N 59°06' E 010°14'2 1.8
2015-Jun-23 22:33N 59°05' E 010°15'1413.7
2015-Jun-23 21:34N 59°01' E 010°40'1515.4
2015-Jun-23 20:34N 58°56' E 011°08'  
Track history (hours):
 
Tides and Currents Weather Stations Pressure Air Temp Water Temp Dewpoint Dewpoint Depression Visibility Wind Speed Wind Dir Waves Ship Positions

DucheSS Of Scandinavia

Operator: DFDS A/S

Last reported at 2015-Jul-03 19:34 UTC. Time now 2015-Jul-03 20:13 UTC.
Position N 58°58' E 011°02'.

Length 134 m; draft 5.2 m.

Type: Passenger vessel. MMSI: 219002929.

Date/timePositionNaut miles runAvg speedWind from/ knotsBaromVisibWave heightAir tempDewpointWater temp
2015-Jul-03 19:34N 58°58' E 011°02'1615.8
2015-Jul-03 18:33N 59°00' E 010°31'1211.5
2015-Jul-03 17:33N 59°07' E 010°14'2 1.7
2015-Jul-03 16:34N 59°06' E 010°14'1514.6
2015-Jul-03 15:34N 59°01' E 010°41'1615.5
2015-Jul-03 14:33N 58°56' E 011°10'0 0.2
2015-Jul-03 13:33N 58°56' E 011°10'1312.6
2015-Jul-03 12:33N 59°02' E 010°48'1616.3
2015-Jul-03 11:33N 59°01' E 010°17'6 6.3
2015-Jul-03 10:33N 59°08' E 010°14'6 6.3
2015-Jul-03 09:33N 59°02' E 010°17'1716.9
2015-Jul-03 08:33N 59°01' E 010°50'1211.7
2015-Jul-03 07:33N 58°56' E 011°10'8 8.5
2015-Jul-03 06:33N 59°00' E 010°56'1616.3
2015-Jul-03 05:34N 59°01' E 010°24'9 8.8
2015-Jul-03 04:33N 59°08' E 010°14'0 0.0
2015-Jul-03 03:31N 59°08' E 010°14'0 0.0
2015-Jul-03 02:32N 59°08' E 010°14'0 0.0
2015-Jul-03 01:26N 59°08' E 010°14'0 0.0
2015-Jul-03 00:33N 59°08' E 010°14'0 0.0
2015-Jul-02 23:33N 59°08' E 010°14'2 1.8
2015-Jul-02 22:33N 59°06' E 010°14'1413.8
2015-Jul-02 21:33N 59°01' E 010°40'1615.6
2015-Jul-02 20:33N 58°56' E 011°08'4 3.9
2015-Jul-02 19:34N 58°58' E 011°02'1615.6
2015-Jul-02 18:34N 59°01' E 010°32'1211.6
2015-Jul-02 17:33N 59°07' E 010°14'2 2.0
2015-Jul-02 16:33N 59°05' E 010°14'1313.3
2015-Jul-02 15:34N 59°01' E 010°39'1515.1
2015-Jul-02 14:33N 58°56' E 011°07'2 1.9
2015-Jul-02 13:34N 58°56' E 011°10'1312.8
2015-Jul-02 12:33N 59°02' E 010°48'1616.4
2015-Jul-02 11:33N 59°02' E 010°16'6 6.0
2015-Jul-02 10:34N 59°08' E 010°14'6 6.4
2015-Jul-02 09:33N 59°02' E 010°18'1716.7
2015-Jul-02 08:33N 59°01' E 010°50'1211.3
2015-Jul-02 07:31N 58°56' E 011°10'8 8.8
2015-Jul-02 06:33N 59°00' E 010°56'1616.3
2015-Jul-02 05:33N 59°01' E 010°24'9 8.8
2015-Jul-02 04:33N 59°08' E 010°14'0 0.0
2015-Jul-02 03:33N 59°08' E 010°14'0 0.0
2015-Jul-02 02:33N 59°08' E 010°14'0 0.0
2015-Jul-02 01:33N 59°08' E 010°14'0 0.0
2015-Jul-02 00:33N 59°08' E 010°14'0 0.0
2015-Jul-01 23:33N 59°08' E 010°14'2 2.3
2015-Jul-01 22:33N 59°05' E 010°14'1313.1
2015-Jul-01 21:34N 59°01' E 010°38'1615.4
2015-Jul-01 20:33N 58°56' E 011°07'4 3.6
2015-Jul-01 19:33N 58°58' E 011°02'1615.6
2015-Jul-01 18:34N 59°01' E 010°32'1111.4
2015-Jul-01 17:33N 59°07' E 010°14'2 2.3
2015-Jul-01 16:33N 59°05' E 010°15'1413.6
2015-Jul-01 15:33N 59°02' E 010°40'1515.3
2015-Jul-01 14:33N 58°56' E 011°08'1 1.3
2015-Jul-01 13:33N 58°56' E 011°10'1313.0
2015-Jul-01 12:34N 59°02' E 010°48'1615.5
2015-Jul-01 11:33N 59°01' E 010°17'6 6.5
2015-Jul-01 10:33N 59°08' E 010°14'6 5.8
2015-Jul-01 09:33N 59°02' E 010°16'1616.0
2015-Jul-01 08:34N 59°02' E 010°47'1313.4
2015-Jul-01 07:33N 58°56' E 011°10'8 8.2
2015-Jul-01 06:34N 59°00' E 010°57'1616.1
2015-Jul-01 05:34N 59°01' E 010°25'9 9.1
2015-Jul-01 04:33N 59°08' E 010°14'0 0.0
2015-Jul-01 03:33N 59°08' E 010°14'0 0.0
2015-Jul-01 02:33N 59°08' E 010°14'0 0.0
2015-Jul-01 01:33N 59°08' E 010°14'0 0.0
2015-Jul-01 00:32N 59°08' E 010°14'0 0.0
2015-Jun-30 23:33N 59°08' E 010°14'3 2.8
2015-Jun-30 22:33N 59°05' E 010°15'1414.4
2015-Jun-30 21:34N 59°01' E 010°42'1515.2
2015-Jun-30 20:33N 58°56' E 011°10'5 4.7
2015-Jun-30 19:34N 58°58' E 011°02'1615.9
2015-Jun-30 18:34N 59°00' E 010°32'1211.5
2015-Jun-30 17:33N 59°07' E 010°14'2 1.8
2015-Jun-30 16:33N 59°06' E 010°14'1413.9
2015-Jun-30 15:34N 59°01' E 010°40'1615.1
2015-Jun-30 14:31N 58°56' E 011°08'1 0.9
2015-Jun-30 13:33N 58°56' E 011°10'1312.9
2015-Jun-30 12:33N 59°02' E 010°48'1615.8
2015-Jun-30 11:33N 59°02' E 010°17'6 6.3
2015-Jun-30 10:33N 59°08' E 010°14'6 6.3
2015-Jun-30 09:33N 59°02' E 010°17'1616.1
2015-Jun-30 08:34N 59°02' E 010°48'1312.4
2015-Jun-30 07:32N 58°56' E 011°10'1010.4
2015-Jun-30 06:34N 59°01' E 010°53'1716.5
2015-Jun-30 05:33N 59°01' E 010°21'8 7.6
2015-Jun-30 04:33N 59°08' E 010°14'0 0.0
2015-Jun-30 03:33N 59°08' E 010°14'0 0.0
2015-Jun-30 02:34N 59°08' E 010°14'0 0.0
2015-Jun-30 01:31N 59°08' E 010°14'0 0.0
2015-Jun-30 00:32N 59°08' E 010°14'0 0.0
2015-Jun-29 23:33N 59°08' E 010°14'3 3.3
2015-Jun-29 22:33N 59°04' E 010°15'1313.2
2015-Jun-29 21:33N 59°01' E 010°40'1514.7
2015-Jun-29 20:34N 58°56' E 011°06'4 3.6
2015-Jun-29 19:33N 58°59' E 011°01'1515.5
2015-Jun-29 18:34N 59°00' E 010°32'1211.4
2015-Jun-29 17:33N 59°07' E 010°14'3 3.3
2015-Jun-29 16:34N 59°04' E 010°15'1413.8
2015-Jun-29 15:33N 59°01' E 010°41'1515.2
2015-Jun-29 14:33N 58°56' E 011°09'1 0.8
2015-Jun-29 13:33N 58°56' E 011°10'1312.7
2015-Jun-29 12:33N 59°02' E 010°48'1716.6
2015-Jun-29 11:33N 59°02' E 010°16'6 5.9
2015-Jun-29 10:33N 59°08' E 010°14'6 6.2
2015-Jun-29 09:34N 59°02' E 010°17'1616.4
2015-Jun-29 08:33N 59°02' E 010°49'1212.4
2015-Jun-29 07:33N 58°56' E 011°10'8 8.0
2015-Jun-29 06:33N 59°00' E 010°57'1616.2
2015-Jun-29 05:33N 59°01' E 010°26'9 9.2
2015-Jun-29 04:33N 59°08' E 010°14'0 0.0
2015-Jun-29 03:33N 59°08' E 010°14'0 0.0
2015-Jun-29 02:33N 59°08' E 010°14'0 0.0
2015-Jun-29 01:33N 59°08' E 010°14'0 0.0
2015-Jun-29 00:34N 59°08' E 010°14'0 0.0
2015-Jun-28 23:34N 59°08' E 010°14'5 5.2
2015-Jun-28 22:33N 59°02' E 010°15'1514.5
2015-Jun-28 21:34N 59°02' E 010°43'1514.5
2015-Jun-28 20:33N 58°56' E 011°09'6 5.9
2015-Jun-28 19:34N 58°59' E 010°60'1616.0
2015-Jun-28 18:33N 59°01' E 010°29'1010.5
2015-Jun-28 17:33N 59°08' E 010°14'3 3.5
2015-Jun-28 16:33N 59°04' E 010°15'1413.7
2015-Jun-28 15:33N 59°01' E 010°41'1515.0
2015-Jun-28 14:32N 58°56' E 011°09'1 0.9
2015-Jun-28 13:33N 58°56' E 011°10'1212.5
2015-Jun-28 12:33N 59°01' E 010°49'1716.7
2015-Jun-28 11:34N 59°02' E 010°16'6 6.0
2015-Jun-28 10:34N 59°08' E 010°14'8 6.6
2015-Jun-28 09:25N 59°01' E 010°22'1315.4
2015-Jun-28 08:33N 59°02' E 010°47'5 2.3
2015-Jun-28 06:33N 59°00' E 010°56'1616.4
2015-Jun-28 05:33N 59°01' E 010°24'8 8.5
2015-Jun-28 04:34N 59°08' E 010°14'1 1.4
2015-Jun-28 03:34N 59°06' E 010°14'0 0.0
2015-Jun-28 02:33N 59°06' E 010°14'0 0.0
2015-Jun-28 01:34N 59°06' E 010°14'0 0.0
2015-Jun-28 00:33N 59°06' E 010°14'1 1.1
2015-Jun-27 23:33N 59°07' E 010°14'3 3.3
2015-Jun-27 22:34N 59°04' E 010°15'1413.6
2015-Jun-27 21:34N 59°01' E 010°41'1514.9
2015-Jun-27 20:33N 58°56' E 011°08'4 4.4
2015-Jun-27 19:33N 58°59' E 011°01'1615.8
2015-Jun-27 18:33N 59°00' E 010°31'1111.2
2015-Jun-27 17:33N 59°07' E 010°14'3 3.3
2015-Jun-27 16:33N 59°04' E 010°15'1313.1
2015-Jun-27 15:33N 59°01' E 010°40'1515.2
2015-Jun-27 14:34N 58°56' E 011°07'1 1.5
2015-Jun-27 13:34N 58°56' E 011°10'1212.4
2015-Jun-27 12:33N 59°02' E 010°49'1616.2
2015-Jun-27 11:33N 59°01' E 010°17'6 6.3
2015-Jun-27 10:34N 59°08' E 010°14'6 5.8
2015-Jun-27 09:33N 59°02' E 010°16'1616.4
2015-Jun-27 08:34N 59°02' E 010°47'1313.1
2015-Jun-27 07:34N 58°56' E 011°10'8 7.9
2015-Jun-27 06:33N 59°00' E 010°57'1716.7
2015-Jun-27 05:33N 59°01' E 010°25'9 8.9
2015-Jun-27 04:33N 59°08' E 010°14'1 1.4
2015-Jun-27 03:33N 59°06' E 010°14'0 0.0
2015-Jun-27 02:33N 59°06' E 010°14'0 0.0
2015-Jun-27 01:33N 59°06' E 010°14'0 0.0
2015-Jun-27 00:33N 59°06' E 010°14'0 0.1
2015-Jun-26 23:33N 59°06' E 010°14'2 1.9
2015-Jun-26 22:33N 59°04' E 010°15'1413.9
2015-Jun-26 21:33N 59°01' E 010°41'1515.2
2015-Jun-26 20:33N 58°56' E 011°08'5 5.4
2015-Jun-26 19:33N 58°59' E 011°00'1616.0
2015-Jun-26 18:33N 59°00' E 010°29'1110.6
2015-Jun-26 17:33N 59°08' E 010°14'3 3.4
2015-Jun-26 16:34N 59°04' E 010°15'1413.7
2015-Jun-26 15:33N 59°01' E 010°41'1514.7
2015-Jun-26 14:34N 58°56' E 011°08'1 1.4
2015-Jun-26 13:33N 58°56' E 011°10'1211.7
2015-Jun-26 12:34N 59°01' E 010°50'1616.0
2015-Jun-26 11:33N 59°01' E 010°19'7 6.9
2015-Jun-26 10:33N 59°08' E 010°14'6 6.2
2015-Jun-26 09:33N 59°02' E 010°17'1616.5
2015-Jun-26 08:34N 59°02' E 010°49'1212.3
2015-Jun-26 07:34N 58°56' E 011°10'1010.2
2015-Jun-26 06:34N 59°01' E 010°53'1615.9
2015-Jun-26 05:33N 59°01' E 010°22'8 7.9
2015-Jun-26 04:33N 59°08' E 010°14'1 1.4
2015-Jun-26 03:33N 59°06' E 010°14'0 0.0
2015-Jun-26 02:33N 59°06' E 010°14'0 0.0
2015-Jun-26 01:33N 59°06' E 010°14'0 0.0
2015-Jun-26 00:31N 59°06' E 010°14'0 0.2
2015-Jun-25 23:33N 59°06' E 010°14'1 1.1
2015-Jun-25 22:33N 59°05' E 010°14'1414.0
2015-Jun-25 21:33N 59°01' E 010°40'1515.4
2015-Jun-25 20:33N 58°56' E 011°08'6 6.0
2015-Jun-25 19:33N 58°59' E 010°59'1616.1
2015-Jun-25 18:33N 59°00' E 010°28'1010.2
2015-Jun-25 17:33N 59°08' E 010°14'4 3.6
2015-Jun-25 16:33N 59°04' E 010°15'1313.5
2015-Jun-25 15:33N 59°02' E 010°41'1514.9
2015-Jun-25 14:34N 58°56' E 011°07'1 1.4
2015-Jun-25 13:33N 58°56' E 011°10'1212.4
2015-Jun-25 12:33N 59°01' E 010°49'1616.1
2015-Jun-25 11:33N 59°01' E 010°17'6 6.4
2015-Jun-25 10:33N 59°08' E 010°14'6 6.0
2015-Jun-25 09:33N 59°02' E 010°16'1615.9
2015-Jun-25 08:33N 59°02' E 010°47'1313.3
2015-Jun-25 07:33N 58°56' E 011°10'9 9.0
2015-Jun-25 06:33N 59°00' E 010°55'1615.7
2015-Jun-25 05:33N 59°01' E 010°25'9 8.9
2015-Jun-25 04:33N 59°08' E 010°14'1 1.4
2015-Jun-25 03:33N 59°06' E 010°14'0 0.0
2015-Jun-25 02:28N 59°06' E 010°14'0 0.0
2015-Jun-25 01:32N 59°06' E 010°14'0 0.0
2015-Jun-25 00:33N 59°06' E 010°14'1 0.7
2015-Jun-24 23:33N 59°07' E 010°14'3 2.5
2015-Jun-24 22:33N 59°04' E 010°15'1414.0
2015-Jun-24 21:34N 59°02' E 010°41'1515.3
2015-Jun-24 20:33N 58°56' E 011°09'5 5.3
2015-Jun-24 19:33N 58°59' E 011°01'1615.9
2015-Jun-24 18:33N 59°00' E 010°30'1110.9
2015-Jun-24 17:33N 59°07' E 010°14'3 3.3
2015-Jun-24 16:34N 59°04' E 010°15'1413.7
2015-Jun-24 15:34N 59°02' E 010°41'1515.0
2015-Jun-24 14:33N 58°56' E 011°08'1 1.2
2015-Jun-24 13:33N 58°56' E 011°10'1312.8
2015-Jun-24 12:33N 59°02' E 010°48'1616.4
2015-Jun-24 11:33N 59°02' E 010°16'6 6.0
2015-Jun-24 10:33N 59°08' E 010°14'7 6.9
2015-Jun-24 09:33N 59°01' E 010°20'1515.5
2015-Jun-24 08:33N 59°02' E 010°49'1212.0
2015-Jun-24 07:33N 58°56' E 011°10'8 8.2
2015-Jun-24 06:33N 59°00' E 010°57'1616.3
2015-Jun-24 05:33N 59°01' E 010°25'9 9.1
2015-Jun-24 04:33N 59°08' E 010°14'1 1.4
2015-Jun-24 03:33N 59°06' E 010°14'0 0.0
2015-Jun-24 02:34N 59°06' E 010°14'0 0.0
2015-Jun-24 01:33N 59°06' E 010°14'0 0.0
2015-Jun-24 00:33N 59°06' E 010°14'0 0.3
2015-Jun-23 23:33N 59°06' E 010°14'2 1.8
2015-Jun-23 22:33N 59°05' E 010°15'1413.7
2015-Jun-23 21:34N 59°01' E 010°40'1515.4
2015-Jun-23 20:34N 58°56' E 011°08'  

Dump ship's entire track history